createdAt,value
2024-03-14T00:00:22.784Z,100.00
2024-03-14T00:02:50.171Z,100.00
2024-03-14T00:05:18.930Z,100.00
2024-03-14T00:07:48.848Z,100.00
2024-03-14T00:10:15.693Z,100.00
2024-03-14T00:12:42.396Z,100.00
2024-03-14T00:15:13.901Z,100.00
2024-03-14T00:17:42.187Z,100.00
2024-03-14T00:20:13.736Z,100.00
2024-03-14T00:22:40.658Z,100.00
2024-03-14T00:25:11.133Z,100.00
2024-03-14T00:27:40.856Z,100.00
2024-03-14T00:30:12.331Z,100.00
2024-03-14T00:32:39.306Z,100.00
2024-03-14T00:35:06.051Z,100.00
2024-03-14T00:37:32.810Z,100.00
2024-03-14T00:39:59.733Z,100.00
2024-03-14T00:42:27.764Z,100.00
2024-03-14T00:44:54.695Z,100.00
2024-03-14T00:47:21.885Z,100.00
2024-03-14T00:49:48.788Z,100.00
2024-03-14T00:52:15.420Z,100.00
2024-03-14T00:54:42.359Z,100.00
2024-03-14T00:57:09.174Z,100.00
2024-03-14T00:59:36.189Z,100.00
2024-03-14T01:02:03.785Z,100.00
2024-03-14T01:04:30.500Z,100.00
2024-03-14T01:06:57.299Z,100.00
2024-03-14T01:09:26.922Z,100.00
2024-03-14T01:11:56.728Z,100.00
2024-03-14T01:14:23.641Z,100.00
2024-03-14T01:16:53.207Z,100.00
2024-03-14T01:19:20.333Z,100.00
2024-03-14T01:21:47.130Z,100.00
2024-03-14T01:24:14.528Z,100.00
2024-03-14T01:26:43.336Z,100.00
2024-03-14T01:29:11.810Z,100.00
2024-03-14T01:31:38.712Z,100.00
2024-03-14T01:34:06.507Z,100.00
2024-03-14T01:36:38.142Z,100.00
2024-03-14T01:39:11.434Z,100.00
2024-03-14T01:41:38.285Z,100.00
2024-03-14T01:44:05.894Z,100.00
2024-03-14T01:46:32.972Z,100.00
2024-03-14T01:49:02.214Z,100.00
2024-03-14T01:51:32.437Z,100.00
2024-03-14T01:54:00.644Z,100.00
2024-03-14T01:56:28.107Z,100.00
2024-03-14T01:58:55.186Z,100.00
2024-03-14T02:01:22.885Z,100.00
2024-03-14T02:03:58.093Z,100.00
2024-03-14T02:06:38.210Z,100.00
2024-03-14T02:09:06.147Z,100.00
2024-03-14T02:11:34.067Z,100.00
2024-03-14T02:14:00.666Z,100.00
2024-03-14T02:16:27.456Z,100.00
2024-03-14T02:18:54.154Z,100.00
2024-03-14T02:21:20.973Z,100.00
2024-03-14T02:23:47.786Z,100.00
2024-03-14T02:26:14.490Z,100.00
2024-03-14T02:28:41.280Z,100.00
2024-03-14T02:31:08.739Z,100.00
2024-03-14T02:33:35.375Z,100.00
2024-03-14T02:36:02.023Z,100.00
2024-03-14T02:38:28.987Z,100.00
2024-03-14T02:40:55.957Z,100.00
2024-03-14T02:43:23.691Z,100.00
2024-03-14T02:45:50.588Z,100.00
2024-03-14T02:48:17.277Z,100.00
2024-03-14T02:50:45.275Z,100.00
2024-03-14T02:53:14.813Z,100.00
2024-03-14T02:55:41.594Z,100.00
2024-03-14T02:58:08.904Z,100.00
2024-03-14T03:00:35.571Z,100.00
2024-03-14T03:03:02.281Z,100.00
2024-03-14T03:05:28.900Z,100.00
2024-03-14T03:07:56.067Z,100.00
2024-03-14T03:10:23.883Z,100.00
2024-03-14T03:12:50.621Z,100.00
2024-03-14T03:15:17.285Z,100.00
2024-03-14T03:17:44.037Z,100.00
2024-03-14T03:20:14.022Z,100.00
2024-03-14T03:23:01.341Z,100.00
2024-03-14T03:25:30.353Z,100.00
2024-03-14T03:27:56.956Z,100.00
2024-03-14T03:30:24.793Z,100.00
2024-03-14T03:32:51.992Z,100.00
2024-03-14T03:35:24.934Z,100.00
2024-03-14T03:37:53.196Z,100.00
2024-03-14T03:40:25.250Z,100.00
2024-03-14T03:42:55.394Z,100.00
2024-03-14T03:45:22.626Z,100.00
2024-03-14T03:47:49.566Z,100.00
2024-03-14T03:50:16.443Z,100.00
2024-03-14T03:52:43.118Z,100.00
2024-03-14T03:55:17.402Z,100.00
2024-03-14T03:57:45.307Z,100.00
2024-03-14T04:00:34.544Z,100.00
2024-03-14T04:03:09.399Z,100.00
2024-03-14T04:05:37.960Z,100.00
2024-03-14T04:08:08.831Z,100.00
2024-03-14T04:10:36.332Z,100.00
2024-03-14T04:13:03.097Z,100.00
2024-03-14T04:15:30.366Z,100.00
2024-03-14T04:17:58.241Z,100.00
2024-03-14T04:20:29.227Z,100.00
2024-03-14T04:22:57.446Z,100.00
2024-03-14T04:25:24.100Z,100.00
2024-03-14T04:27:54.644Z,100.00
2024-03-14T04:30:22.813Z,100.00
2024-03-14T04:32:49.828Z,100.00
2024-03-14T04:35:17.281Z,100.00
2024-03-14T04:37:51.188Z,100.00
2024-03-14T04:40:18.430Z,100.00
2024-03-14T04:42:45.036Z,100.00
2024-03-14T04:45:14.423Z,100.00
2024-03-14T04:47:41.414Z,100.00
2024-03-14T04:50:11.630Z,100.00
2024-03-14T04:52:38.336Z,100.00
2024-03-14T04:55:12.180Z,100.00
2024-03-14T04:57:42.773Z,100.00
2024-03-14T05:00:22.654Z,100.00
2024-03-14T05:02:51.498Z,100.00
2024-03-14T05:05:24.314Z,100.00
2024-03-14T05:07:54.870Z,100.00
2024-03-14T05:10:22.665Z,100.00
2024-03-14T05:12:50.386Z,100.00
2024-03-14T05:15:17.879Z,100.00
2024-03-14T05:17:46.614Z,100.00
2024-03-14T05:20:15.571Z,100.00
2024-03-14T05:22:43.394Z,100.00
2024-03-14T05:25:14.203Z,100.00
2024-03-14T05:27:51.083Z,100.00
2024-03-14T05:30:24.790Z,100.00
2024-03-14T05:32:55.279Z,100.00
2024-03-14T05:35:22.671Z,100.00
2024-03-14T05:37:50.590Z,100.00
2024-03-14T05:40:17.570Z,100.00
2024-03-14T05:42:44.185Z,100.00
2024-03-14T05:45:11.521Z,100.00
2024-03-14T05:47:40.649Z,100.00
2024-03-14T05:50:09.305Z,100.00
2024-03-14T05:52:36.111Z,100.00
2024-03-14T05:55:03.947Z,100.00
2024-03-14T05:57:30.926Z,100.00
2024-03-14T05:59:57.732Z,100.00
2024-03-14T06:02:24.423Z,100.00
2024-03-14T06:04:51.286Z,100.00
2024-03-14T06:07:22.927Z,100.00
2024-03-14T06:09:52.089Z,100.00
2024-03-14T06:12:19.345Z,100.00
2024-03-14T06:14:47.076Z,100.00
2024-03-14T06:17:14.202Z,100.00
2024-03-14T06:19:41.089Z,100.00
2024-03-14T06:22:09.303Z,100.00
2024-03-14T06:24:36.066Z,100.00
2024-03-14T06:27:02.703Z,100.00
2024-03-14T06:29:30.340Z,100.00
2024-03-14T06:31:57.439Z,100.00
2024-03-14T06:34:25.129Z,100.00
2024-03-14T06:36:51.665Z,100.00
2024-03-14T06:39:18.933Z,100.00
2024-03-14T06:41:45.747Z,100.00
2024-03-14T06:44:14.818Z,100.00
2024-03-14T06:46:41.565Z,100.00
2024-03-14T06:49:15.205Z,100.00
2024-03-14T06:51:46.086Z,100.00
2024-03-14T06:54:14.112Z,100.00
2024-03-14T06:56:41.899Z,100.00
2024-03-14T06:59:14.109Z,100.00
2024-03-14T07:01:42.165Z,100.00
2024-03-14T07:04:10.121Z,100.00
2024-03-14T07:06:37.322Z,100.00
2024-03-14T07:09:05.336Z,100.00
2024-03-14T07:11:32.608Z,100.00
2024-03-14T07:14:01.353Z,100.00
2024-03-14T07:16:28.091Z,100.00
2024-03-14T07:18:55.282Z,100.00
2024-03-14T07:21:25.937Z,100.00
2024-03-14T07:23:54.546Z,100.00
2024-03-14T07:26:24.686Z,100.00
2024-03-14T07:28:55.415Z,100.00
2024-03-14T07:31:22.293Z,100.00
2024-03-14T07:33:49.950Z,100.00
2024-03-14T07:36:17.296Z,100.00
2024-03-14T07:38:50.752Z,100.00
2024-03-14T07:41:23.877Z,100.00
2024-03-14T07:44:09.860Z,100.00
2024-03-14T07:46:42.101Z,100.00
2024-03-14T07:49:09.390Z,100.00
2024-03-14T07:51:36.299Z,100.00
2024-03-14T07:54:03.291Z,100.00
2024-03-14T07:56:31.074Z,100.00
2024-03-14T07:58:57.799Z,100.00
2024-03-14T08:01:24.683Z,100.00
2024-03-14T08:03:51.782Z,100.00
2024-03-14T08:06:20.008Z,100.00
2024-03-14T08:08:46.966Z,100.00
2024-03-14T08:11:14.384Z,100.00
2024-03-14T08:13:42.442Z,100.00
2024-03-14T08:16:11.095Z,100.00
2024-03-14T08:37:34.119Z,100.00
2024-03-14T08:40:01.525Z,100.00
2024-03-14T08:42:40.242Z,100.00
2024-03-14T08:45:13.304Z,100.00
2024-03-14T08:47:40.221Z,100.00
2024-03-14T08:50:10.731Z,100.00
2024-03-14T08:52:38.473Z,100.00
2024-03-14T08:55:24.847Z,100.00
2024-03-14T08:57:52.642Z,100.00
2024-03-14T09:00:23.379Z,100.00
2024-03-14T09:02:51.359Z,100.00
2024-03-14T09:05:18.559Z,100.00
2024-03-14T09:07:47.191Z,100.00
2024-03-14T09:10:29.558Z,100.00
2024-03-14T09:12:56.872Z,100.00
2024-03-14T09:15:25.710Z,100.00
2024-03-14T09:17:53.286Z,100.00
2024-03-14T09:20:24.310Z,100.00
2024-03-14T09:22:57.382Z,100.00
2024-03-14T09:25:25.321Z,100.00
2024-03-14T09:27:54.932Z,100.00
2024-03-14T09:30:25.632Z,100.00
2024-03-14T09:32:54.573Z,100.00
2024-03-14T09:35:28.660Z,100.00
2024-03-14T09:37:56.781Z,100.00
2024-03-14T09:40:25.071Z,100.00
2024-03-14T09:43:00.070Z,100.00
2024-03-14T09:45:28.148Z,100.00
2024-03-14T09:47:58.398Z,100.00
2024-03-14T09:50:28.210Z,100.00
2024-03-14T09:52:56.736Z,100.00
2024-03-14T09:55:25.446Z,100.00
2024-03-14T09:57:54.420Z,100.00
2024-03-14T10:00:21.594Z,100.00
2024-03-14T10:02:54.081Z,100.00
2024-03-14T10:05:21.026Z,100.00
2024-03-14T10:07:48.997Z,100.00
2024-03-14T10:10:19.430Z,100.00
2024-03-14T10:12:54.776Z,100.00
2024-03-14T10:15:23.086Z,100.00
2024-03-14T10:17:50.692Z,100.00
2024-03-14T10:20:19.072Z,100.00
2024-03-14T10:22:50.467Z,100.00
2024-03-14T10:25:19.636Z,100.00
2024-03-14T10:27:57.550Z,100.00
2024-03-14T10:30:34.636Z,100.00
2024-03-14T10:33:03.980Z,100.00
2024-03-14T10:35:33.000Z,100.00
2024-03-14T10:38:01.048Z,100.00
2024-03-14T10:40:31.985Z,100.00
2024-03-14T10:42:58.933Z,100.00
2024-03-14T10:45:28.794Z,100.00
2024-03-14T10:47:57.960Z,100.00
2024-03-14T10:50:27.620Z,100.00
2024-03-14T10:52:56.439Z,100.00
2024-03-14T10:55:25.217Z,100.00
2024-03-14T10:57:52.972Z,100.00
2024-03-14T11:00:21.336Z,100.00
2024-03-14T11:02:50.923Z,100.00
2024-03-14T11:05:24.729Z,100.00
2024-03-14T11:07:55.123Z,100.00
2024-03-14T11:10:33.018Z,100.00
2024-03-14T11:13:11.497Z,100.00
2024-03-14T11:15:40.406Z,100.00
2024-03-14T11:18:13.698Z,100.00
2024-03-14T11:20:46.243Z,100.00
2024-03-14T11:23:17.731Z,100.00
2024-03-14T11:25:49.017Z,100.00
2024-03-14T11:28:17.144Z,100.00
2024-03-14T11:31:02.134Z,100.00
2024-03-14T11:33:29.249Z,100.00
2024-03-14T11:36:00.271Z,100.00
2024-03-14T11:38:30.049Z,100.00
2024-03-14T11:41:07.659Z,100.00
2024-03-14T11:43:35.557Z,100.00
2024-03-14T11:46:09.227Z,100.00
2024-03-14T11:48:38.256Z,100.00
2024-03-14T11:51:05.309Z,100.00
2024-03-14T11:53:33.823Z,100.00
2024-03-14T11:56:07.302Z,100.00
2024-03-14T11:58:43.287Z,100.00
2024-03-14T12:01:22.147Z,100.00
2024-03-14T12:03:59.198Z,100.00
2024-03-14T12:06:27.129Z,100.00
2024-03-14T12:08:53.992Z,100.00
2024-03-14T12:11:21.950Z,100.00
2024-03-14T12:13:54.041Z,100.00
2024-03-14T12:16:20.974Z,100.00
2024-03-14T12:18:50.938Z,100.00
2024-03-14T12:21:18.145Z,100.00
2024-03-14T12:23:57.294Z,100.00
2024-03-14T12:26:24.456Z,100.00
2024-03-14T12:28:52.500Z,100.00
2024-03-14T12:31:20.781Z,100.00
2024-03-14T12:33:47.828Z,100.00
2024-03-14T12:36:18.879Z,100.00
2024-03-14T12:38:51.969Z,100.00
2024-03-14T12:41:22.473Z,100.00
2024-03-14T12:43:49.728Z,100.00
2024-03-14T12:46:19.365Z,100.00
2024-03-14T12:48:47.499Z,100.00
2024-03-14T12:51:19.204Z,100.00
2024-03-14T12:53:59.694Z,100.00
2024-03-14T12:56:28.806Z,100.00
2024-03-14T12:58:59.072Z,100.00
2024-03-14T13:01:35.640Z,100.00
2024-03-14T13:04:11.881Z,100.00
2024-03-14T13:06:39.963Z,100.00
2024-03-14T13:09:25.998Z,100.00
2024-03-14T13:12:16.035Z,100.00
2024-03-14T13:14:43.325Z,100.00
2024-03-14T13:17:15.210Z,100.00
2024-03-14T13:19:41.904Z,100.00
2024-03-14T13:22:12.479Z,100.00
2024-03-14T13:24:39.669Z,100.00
2024-03-14T13:27:06.758Z,100.00
2024-03-14T13:29:35.223Z,100.00
2024-03-14T13:32:01.922Z,100.00
2024-03-14T13:34:28.624Z,100.00
2024-03-14T13:36:56.449Z,100.00
2024-03-14T13:39:29.915Z,100.00
2024-03-14T13:41:59.589Z,100.00
2024-03-14T13:44:26.398Z,100.00
2024-03-14T13:46:53.931Z,100.00
2024-03-14T13:49:20.731Z,100.00
2024-03-14T13:51:49.362Z,100.00
2024-03-14T13:54:19.673Z,100.00
2024-03-14T13:56:48.933Z,100.00
2024-03-14T13:59:19.101Z,100.00
2024-03-14T14:01:47.133Z,100.00
2024-03-14T14:04:14.043Z,100.00
2024-03-14T14:06:42.393Z,100.00
2024-03-14T14:09:09.471Z,100.00
2024-03-14T14:11:38.821Z,100.00
2024-03-14T14:14:08.366Z,100.00
2024-03-14T14:16:35.581Z,100.00
2024-03-14T14:19:02.371Z,100.00
2024-03-14T14:21:29.665Z,100.00
2024-03-14T14:23:56.464Z,100.00
2024-03-14T14:26:23.705Z,100.00
2024-03-14T14:28:50.592Z,100.00
2024-03-14T14:31:18.038Z,100.00
2024-03-14T14:33:45.027Z,100.00
2024-03-14T14:36:13.056Z,100.00
2024-03-14T14:38:40.121Z,100.00
2024-03-14T14:41:08.601Z,100.00
2024-03-14T14:43:36.316Z,100.00
2024-03-14T14:46:03.557Z,100.00
2024-03-14T14:48:30.382Z,100.00
2024-03-14T14:50:57.870Z,100.00
2024-03-14T14:53:24.673Z,100.00
2024-03-14T14:55:54.522Z,100.00
2024-03-14T14:58:23.417Z,100.00
2024-03-14T15:00:50.199Z,100.00
2024-03-14T15:03:16.942Z,100.00
2024-03-14T15:05:45.413Z,100.00
2024-03-14T15:08:14.460Z,100.00
2024-03-14T15:10:42.504Z,100.00
2024-03-14T15:13:10.023Z,100.00
2024-03-14T15:15:39.809Z,57.63
2024-03-14T15:18:06.904Z,56.74
2024-03-14T15:20:33.800Z,57.44
2024-03-14T15:23:00.794Z,58.05
2024-03-14T15:25:27.596Z,57.34
2024-03-14T15:27:54.826Z,57.60
2024-03-14T15:30:24.369Z,58.89
2024-03-14T15:32:51.577Z,55.98
2024-03-14T15:35:18.454Z,60.06
2024-03-14T15:37:46.335Z,60.22
2024-03-14T15:40:16.807Z,59.66
2024-03-14T15:42:44.152Z,58.66
2024-03-14T15:45:18.200Z,61.40
2024-03-14T15:47:46.969Z,58.91
2024-03-14T15:50:14.939Z,62.58
2024-03-14T15:52:41.818Z,62.68
2024-03-14T15:55:09.674Z,63.84
2024-03-14T15:57:36.523Z,65.35
2024-03-14T16:00:04.442Z,66.27
2024-03-14T16:02:31.959Z,64.95
2024-03-14T16:04:59.630Z,64.18
2024-03-14T16:07:27.691Z,63.20
2024-03-14T16:09:54.879Z,68.24
2024-03-14T16:12:21.786Z,68.54
2024-03-14T16:14:50.704Z,66.45
2024-03-14T16:17:19.045Z,68.01
2024-03-14T16:19:45.852Z,65.95
2024-03-14T16:22:12.940Z,67.40
2024-03-14T16:24:40.103Z,65.87
2024-03-14T16:27:11.795Z,67.35
2024-03-14T16:29:38.591Z,67.17
2024-03-14T16:32:07.142Z,68.60
2024-03-14T16:34:34.010Z,69.50
2024-03-14T16:37:00.842Z,70.61
2024-03-14T16:39:28.047Z,70.61
2024-03-14T16:41:54.870Z,67.91
2024-03-14T16:44:21.883Z,70.67
2024-03-14T16:46:49.671Z,68.39
2024-03-14T16:49:16.472Z,69.35
2024-03-14T16:51:46.380Z,69.20
2024-03-14T16:54:20.644Z,70.53
2024-03-14T16:56:47.945Z,70.99
2024-03-14T16:59:14.955Z,70.49
2024-03-14T17:01:44.285Z,71.76
2024-03-14T17:04:11.109Z,73.44
2024-03-14T17:06:37.950Z,72.96
2024-03-14T17:09:09.289Z,74.26
2024-03-14T17:11:39.346Z,74.82
2024-03-14T17:14:06.382Z,76.03
2024-03-14T17:16:33.515Z,76.61
2024-03-14T17:19:00.502Z,78.35
2024-03-14T17:21:27.557Z,78.68
2024-03-14T17:23:54.352Z,79.07
2024-03-14T17:26:21.113Z,79.69
2024-03-14T17:28:47.865Z,80.18
2024-03-14T17:31:18.561Z,80.59
2024-03-14T17:33:47.077Z,81.25
2024-03-14T17:36:20.403Z,81.27
2024-03-14T17:38:47.152Z,81.88
2024-03-14T17:41:13.856Z,100.00
2024-03-14T17:43:42.524Z,100.00
2024-03-14T17:46:09.553Z,100.00
2024-03-14T17:48:38.482Z,84.56
2024-03-14T17:51:06.548Z,85.20
2024-03-14T17:53:33.327Z,85.66
2024-03-14T17:56:04.663Z,85.84
2024-03-14T17:58:31.826Z,85.83
2024-03-14T18:00:58.787Z,88.99
2024-03-14T18:03:28.281Z,89.25
2024-03-14T18:05:55.248Z,88.40
2024-03-14T18:08:23.698Z,88.18
2024-03-14T18:10:51.108Z,88.11
2024-03-14T18:13:17.828Z,88.06
2024-03-14T18:15:44.720Z,89.19
2024-03-14T18:18:11.702Z,89.22
2024-03-14T18:20:38.469Z,89.93
2024-03-14T18:23:06.738Z,89.37
2024-03-14T18:25:38.511Z,89.34
2024-03-14T18:28:05.617Z,89.72
2024-03-14T18:30:32.450Z,90.26
2024-03-14T18:32:59.512Z,90.51
2024-03-14T18:35:26.992Z,90.48
2024-03-14T18:37:56.492Z,91.19
2024-03-14T18:40:27.616Z,91.82
2024-03-14T18:42:58.953Z,91.59
2024-03-14T18:45:26.702Z,91.46
2024-03-14T18:47:54.004Z,91.87
2024-03-14T18:50:23.102Z,92.53
2024-03-14T18:52:52.254Z,92.92
2024-03-14T18:55:21.716Z,93.60
2024-03-14T18:57:48.916Z,95.25
2024-03-14T19:00:20.287Z,94.62
2024-03-14T19:02:48.165Z,95.51
2024-03-14T19:05:14.786Z,96.25
2024-03-14T19:07:43.069Z,96.71
2024-03-14T19:10:09.932Z,97.83
2024-03-14T19:12:36.911Z,99.00
2024-03-14T19:15:06.689Z,98.80
2024-03-14T19:17:33.836Z,99.01
2024-03-14T19:20:03.613Z,100.00
2024-03-14T19:22:31.261Z,100.00
2024-03-14T19:24:58.063Z,100.00
2024-03-14T19:27:25.627Z,100.00
2024-03-14T19:29:52.443Z,100.00
2024-03-14T19:32:22.144Z,100.00
2024-03-14T19:34:51.903Z,100.00
2024-03-14T19:37:18.670Z,100.00
2024-03-14T19:39:45.618Z,100.00
2024-03-14T19:42:13.210Z,100.00
2024-03-14T19:44:40.030Z,100.00
2024-03-14T19:47:07.922Z,99.81
2024-03-14T19:49:34.653Z,100.00
2024-03-14T19:52:02.442Z,100.00
2024-03-14T19:54:29.574Z,100.00
2024-03-14T19:56:57.071Z,100.00
2024-03-14T19:59:23.889Z,100.00
2024-03-14T20:01:52.118Z,100.00
2024-03-14T20:04:18.899Z,100.00
2024-03-14T20:06:45.779Z,100.00
2024-03-14T20:09:13.644Z,100.00
2024-03-14T20:11:40.526Z,100.00
2024-03-14T20:14:07.275Z,100.00
2024-03-14T20:16:34.106Z,100.00
2024-03-14T20:19:01.104Z,100.00
2024-03-14T20:21:31.273Z,100.00
2024-03-14T20:23:58.216Z,100.00
2024-03-14T20:26:24.885Z,100.00
2024-03-14T20:28:51.630Z,100.00
2024-03-14T20:31:19.933Z,100.00
2024-03-14T20:33:48.025Z,100.00
2024-03-14T20:36:18.518Z,100.00
2024-03-14T20:38:45.439Z,100.00
2024-03-14T20:41:21.975Z,100.00
2024-03-14T20:43:54.744Z,100.00
2024-03-14T20:46:21.891Z,100.00
2024-03-14T20:48:51.238Z,100.00
2024-03-14T20:51:21.899Z,100.00
2024-03-14T20:53:48.629Z,100.00
2024-03-14T20:56:30.318Z,100.00
2024-03-14T20:58:58.354Z,100.00
2024-03-14T21:01:25.025Z,100.00
2024-03-14T21:03:51.717Z,100.00
2024-03-14T21:06:18.726Z,100.00
2024-03-14T21:08:58.168Z,100.00
2024-03-14T21:11:25.124Z,100.00
2024-03-14T21:13:53.126Z,100.00
2024-03-14T21:16:21.664Z,100.00
2024-03-14T21:18:48.818Z,100.00
2024-03-14T21:21:15.644Z,100.00
2024-03-14T21:23:44.071Z,100.00
2024-03-14T21:26:13.499Z,100.00
2024-03-14T21:28:40.247Z,100.00
2024-03-14T21:31:07.697Z,100.00
2024-03-14T21:33:35.638Z,100.00
2024-03-14T21:36:02.647Z,100.00
2024-03-14T21:38:29.430Z,100.00
2024-03-14T21:40:56.221Z,100.00
2024-03-14T21:43:23.298Z,100.00
2024-03-14T21:45:51.260Z,100.00
2024-03-14T21:48:18.779Z,100.00
2024-03-14T21:50:47.580Z,100.00
2024-03-14T21:53:17.151Z,100.00
2024-03-14T21:55:43.949Z,100.00
2024-03-14T21:58:10.725Z,100.00
2024-03-14T22:00:37.405Z,100.00
2024-03-14T22:03:04.366Z,100.00
2024-03-14T22:05:31.873Z,100.00
2024-03-14T22:07:58.772Z,100.00
2024-03-14T22:10:25.561Z,100.00
2024-03-14T22:12:52.518Z,100.00
2024-03-14T22:15:19.392Z,100.00
2024-03-14T22:17:46.418Z,100.00
2024-03-14T22:20:20.208Z,100.00
2024-03-14T22:22:47.603Z,100.00
2024-03-14T22:25:14.820Z,100.00
2024-03-14T22:27:41.632Z,100.00
2024-03-14T22:30:09.933Z,100.00
2024-03-14T22:32:37.872Z,100.00
2024-03-14T22:35:05.434Z,100.00
2024-03-14T22:37:32.332Z,100.00
2024-03-14T22:39:58.989Z,100.00
2024-03-14T22:42:26.115Z,100.00
2024-03-14T22:44:53.183Z,100.00
2024-03-14T22:47:19.895Z,100.00
2024-03-14T22:49:46.732Z,100.00
2024-03-14T22:52:13.512Z,100.00
2024-03-14T22:54:40.309Z,100.00
2024-03-14T22:57:09.534Z,100.00
2024-03-14T22:59:37.725Z,100.00
2024-03-14T23:02:04.881Z,100.00
2024-03-14T23:04:34.138Z,100.00
2024-03-14T23:07:02.015Z,100.00
2024-03-14T23:09:29.178Z,100.00
2024-03-14T23:11:56.301Z,100.00
2024-03-14T23:14:23.441Z,100.00
2024-03-14T23:16:52.105Z,100.00
2024-03-14T23:19:18.887Z,100.00
2024-03-14T23:21:45.629Z,100.00
2024-03-14T23:24:13.098Z,100.00
2024-03-14T23:26:39.734Z,100.00
2024-03-14T23:29:06.370Z,100.00
2024-03-14T23:31:33.053Z,100.00
2024-03-14T23:34:00.300Z,100.00
2024-03-14T23:36:28.054Z,100.00
2024-03-14T23:38:55.204Z,100.00
2024-03-14T23:41:22.500Z,100.00
2024-03-14T23:43:54.305Z,100.00
2024-03-14T23:46:22.037Z,100.00
2024-03-14T23:48:50.140Z,100.00
2024-03-14T23:51:17.014Z,100.00
2024-03-14T23:53:44.043Z,100.00
2024-03-14T23:56:10.911Z,100.00
2024-03-14T23:58:37.569Z,100.00
